Rome, Italy

11:37 AM CET on February 11, 2016 (GMT +0100)
Largo di Torre Argentina | | Change Station
CLOSE
Current Station
Personal Weather Station
Location: Roma, ROMA
Elevation: 128 ft
Nearby Weather Stations

Elev 128 ft 41.90 °N, 12.48 °E | Updated 3 minutes ago

Partly Cloudy
Partly Cloudy
55.4 °F
Feels Like 55.4 °F
N
2.0
Wind Variable Wind from NE
Gusts 5.0 mph

Today
High -- | Low -- °F
--% Chance of Precip.
Yesterday
High -- | Low -- °F
Precip. -- in
Pressure 29.80 in
Visibility 6.2 miles
Clouds Few 4000 ft
Dew Point 44 °F
Humidity 66%
Rainfall 0.11 in
Snow Depth Not available.
7:12 AM 5:37 PM
Waxing Crescent, 11% visible
METAR LIRA 111020Z 02006KT 320V050 9999 FEW040 11/05 Q1009
Pressure 29.80 in
Visibility 6.2 miles
Clouds Few 4000 ft
Dew Point 44 °F
Humidity 66%
Rainfall 0.11 in
Snow Depth Not available.
7:12 AM 5:37 PM
Waxing Crescent, 11% visible
METAR LIRA 111020Z 02006KT 320V050 9999 FEW040 11/05 Q1009

10-Day Weather Forecast

Almanac

Astronomy

Feb. 11, 2016 Rise Set
Actual Time
Civil Twilight
Nautical Twilight
Astronomical Twilight
Moon
Length of Visible Light
Length of Day
Tomorrow will be .
, % of the Moon is Illuminated

Today's Extremes

Country Highs Country Lows

Community

WunderPhotos

Upload Photos

1,892,030 photos uploaded!

WunderBlog® & News

Nearby

Air Quality

  Air Quality AQ Index Pollutant
Not available.

Snow Depth

Station Depth Elevation

Earthquake Activity

City Distance Mag. Time & Date
Minimum magnitude displayed is 2.5.

Coastal Water Temperatures

Place Temperature

Stations

Nearby Weather Stations

Station Location Temp. Windchill Dew Point Humidity Wind Precip. Elev Updated Type